Aviation Digital Data Service (ADDS)

Output produced by METARs form (2351 UTC 23 May 2022)
found at http://www.aviationweather.gov/metar/data/
 
TAF MZBZ 232200Z 2400/2424 12010KT 9999 SCT020 
     PROB30 
     TEMPO 2409/2415 3000 TSRA FEW012CB BKN035 
     PROB30 
     TEMPO 2412/2420 4000 RA SCT010 BKN040